createdAt,value
2022-10-11T00:01:23.400Z,5.15
2022-10-11T00:03:50.001Z,5.21
2022-10-11T00:06:16.793Z,5.19
2022-10-11T00:08:43.329Z,5.06
2022-10-11T00:11:10.327Z,5.13
2022-10-11T00:13:36.930Z,5.10
2022-10-11T00:16:08.885Z,5.06
2022-10-11T00:18:35.718Z,5.02
2022-10-11T00:21:08.498Z,4.95
2022-10-11T00:23:35.528Z,4.82
2022-10-11T00:26:05.773Z,4.86
2022-10-11T00:28:33.324Z,4.82
2022-10-11T00:31:00.115Z,4.79
2022-10-11T00:33:26.716Z,4.78
2022-10-11T00:35:53.307Z,4.76
2022-10-11T00:38:20.053Z,4.63
2022-10-11T00:40:46.693Z,4.62
2022-10-11T00:43:22.430Z,4.61
2022-10-11T00:45:58.221Z,4.59
2022-10-11T00:48:32.440Z,4.55
2022-10-11T00:51:02.342Z,4.49
2022-10-11T00:53:30.651Z,4.42
2022-10-11T00:56:06.374Z,4.39
2022-10-11T00:58:35.021Z,4.38
2022-10-11T01:01:02.361Z,4.33
2022-10-11T01:03:31.478Z,4.30
2022-10-11T01:05:57.991Z,4.29
2022-10-11T01:08:25.791Z,4.21
2022-10-11T01:10:52.592Z,4.11
2022-10-11T01:13:37.353Z,4.11
2022-10-11T01:16:38.038Z,4.05
2022-10-11T01:19:38.363Z,4.03
2022-10-11T01:22:46.884Z,4.00
2022-10-11T01:25:19.417Z,3.98
2022-10-11T01:27:55.464Z,3.98
2022-10-11T01:30:32.960Z,3.91
2022-10-11T01:33:18.986Z,3.92
2022-10-11T01:35:49.235Z,3.95
2022-10-11T01:38:33.779Z,4.03
2022-10-11T01:41:06.813Z,4.10
2022-10-11T01:43:35.165Z,4.01
2022-10-11T01:46:03.006Z,4.13
2022-10-11T01:48:29.906Z,4.14
2022-10-11T01:50:58.759Z,4.12
2022-10-11T01:53:25.239Z,4.12
2022-10-11T01:56:05.950Z,4.08
2022-10-11T01:58:47.849Z,4.00
2022-10-11T02:01:34.658Z,3.88
2022-10-11T02:04:28.995Z,3.81
2022-10-11T02:07:19.577Z,3.62
2022-10-11T02:09:52.442Z,3.72
2022-10-11T02:12:37.723Z,3.68
2022-10-11T02:15:09.286Z,3.67
2022-10-11T02:17:43.422Z,3.70
2022-10-11T02:20:14.586Z,3.67
2022-10-11T02:22:45.955Z,3.70
2022-10-11T02:25:18.726Z,3.66
2022-10-11T02:27:48.260Z,3.71
2022-10-11T02:30:16.859Z,3.76
2022-10-11T02:32:46.546Z,3.76
2022-10-11T02:35:14.189Z,3.77
2022-10-11T02:37:53.254Z,3.78
2022-10-11T02:40:40.351Z,3.73
2022-10-11T02:43:36.728Z,3.80
2022-10-11T02:46:06.009Z,3.84
2022-10-11T02:48:33.725Z,3.89
2022-10-11T02:51:00.261Z,3.95
2022-10-11T02:53:27.205Z,3.97
2022-10-11T02:55:55.317Z,3.98
2022-10-11T02:58:23.142Z,3.96
2022-10-11T03:00:49.836Z,3.95
2022-10-11T03:03:16.367Z,3.93
2022-10-11T03:05:43.913Z,3.89
2022-10-11T03:08:14.044Z,3.92
2022-10-11T03:10:41.757Z,3.89
2022-10-11T03:13:08.580Z,3.86
2022-10-11T03:15:35.397Z,3.84
2022-10-11T03:18:01.956Z,3.84
2022-10-11T03:20:28.528Z,3.78
2022-10-11T03:22:55.089Z,3.70
2022-10-11T03:25:21.617Z,3.65
2022-10-11T03:27:48.129Z,3.63
2022-10-11T03:30:18.339Z,3.61
2022-10-11T03:32:45.090Z,3.67
2022-10-11T03:35:11.676Z,3.59
2022-10-11T03:37:38.284Z,3.52
2022-10-11T03:40:06.507Z,3.44
2022-10-11T03:42:33.043Z,3.39
2022-10-11T03:45:01.740Z,3.40
2022-10-11T03:47:28.320Z,3.37
2022-10-11T03:49:54.847Z,3.42
2022-10-11T03:52:21.469Z,3.48
2022-10-11T03:54:48.242Z,3.53
2022-10-11T03:57:15.098Z,3.53
2022-10-11T03:59:41.660Z,3.44
2022-10-11T04:02:08.287Z,3.41
2022-10-11T04:04:35.000Z,3.46
2022-10-11T04:07:01.565Z,3.51
2022-10-11T04:09:28.472Z,3.39
2022-10-11T04:11:54.990Z,3.38
2022-10-11T04:14:21.547Z,3.37
2022-10-11T04:16:48.084Z,3.36
2022-10-11T04:19:14.743Z,3.36
2022-10-11T04:21:41.505Z,3.31
2022-10-11T04:24:09.517Z,3.33
2022-10-11T04:26:36.045Z,3.40
2022-10-11T04:29:02.699Z,3.43
2022-10-11T04:31:29.222Z,3.49
2022-10-11T04:33:57.029Z,3.48
2022-10-11T04:36:24.196Z,3.46
2022-10-11T04:38:51.095Z,3.44
2022-10-11T04:41:17.640Z,3.47
2022-10-11T04:43:44.293Z,3.44
2022-10-11T04:46:11.627Z,3.49
2022-10-11T04:48:38.581Z,3.56
2022-10-11T04:51:05.449Z,3.56
2022-10-11T04:53:32.006Z,3.57
2022-10-11T04:56:04.353Z,3.57
2022-10-11T04:58:32.452Z,3.55
2022-10-11T05:00:58.987Z,3.55
2022-10-11T05:03:26.283Z,3.56
2022-10-11T05:05:53.151Z,3.61
2022-10-11T05:08:20.044Z,3.65
2022-10-11T05:11:00.435Z,3.71
2022-10-11T05:13:28.834Z,3.75
2022-10-11T05:15:55.524Z,3.82
2022-10-11T05:18:22.473Z,3.90
2022-10-11T05:20:57.861Z,3.93
2022-10-11T05:23:24.557Z,3.88
2022-10-11T05:25:51.130Z,3.96
2022-10-11T05:28:17.722Z,3.98
2022-10-11T05:30:44.323Z,4.03
2022-10-11T05:33:10.855Z,4.03
2022-10-11T05:35:37.387Z,4.11
2022-10-11T05:38:03.946Z,4.17
2022-10-11T05:40:30.460Z,4.24
2022-10-11T05:42:56.976Z,4.30
2022-10-11T05:45:23.567Z,4.40
2022-10-11T05:47:50.087Z,4.49
2022-10-11T05:50:20.755Z,4.58
2022-10-11T05:52:49.917Z,4.69
2022-10-11T05:55:16.579Z,4.76
2022-10-11T05:57:43.130Z,4.90
2022-10-11T06:00:10.497Z,5.01
2022-10-11T06:02:37.019Z,5.14
2022-10-11T06:05:03.781Z,5.25
2022-10-11T06:07:30.521Z,5.37
2022-10-11T06:09:57.100Z,5.53
2022-10-11T06:12:23.616Z,5.65
2022-10-11T06:14:50.185Z,5.76
2022-10-11T06:17:16.880Z,5.86
2022-10-11T06:19:43.416Z,5.96
2022-10-11T06:22:11.784Z,6.02
2022-10-11T06:24:38.309Z,6.08
2022-10-11T06:27:04.888Z,6.17
2022-10-11T06:29:31.531Z,6.24
2022-10-11T06:31:58.552Z,6.31
2022-10-11T06:34:25.099Z,6.38
2022-10-11T06:36:52.255Z,6.45
2022-10-11T06:39:18.842Z,6.52
2022-10-11T06:41:46.018Z,6.59
2022-10-11T06:44:14.419Z,6.69
2022-10-11T06:46:41.636Z,6.77
2022-10-11T06:49:08.449Z,6.86
2022-10-11T06:51:35.755Z,6.96
2022-10-11T06:54:03.449Z,7.07
2022-10-11T06:56:31.341Z,7.17
2022-10-11T06:58:59.267Z,7.27
2022-10-11T07:01:26.619Z,7.39
2022-10-11T07:03:55.397Z,7.50
2022-10-11T07:06:26.903Z,7.60
2022-10-11T07:08:54.488Z,7.71
2022-10-11T07:11:26.757Z,7.77
2022-10-11T07:13:55.633Z,7.89
2022-10-11T07:16:23.399Z,7.96
2022-10-11T07:18:59.889Z,8.05
2022-10-11T07:21:28.178Z,8.14
2022-10-11T07:23:54.738Z,8.21
2022-10-11T07:26:21.366Z,8.31
2022-10-11T07:28:48.036Z,8.39
2022-10-11T07:31:18.087Z,8.49
2022-10-11T07:33:45.036Z,8.53
2022-10-11T07:36:13.110Z,8.67
2022-10-11T07:38:44.283Z,8.77
2022-10-11T07:41:10.958Z,8.83
2022-10-11T07:43:38.731Z,8.93
2022-10-11T07:46:06.006Z,9.02
2022-10-11T07:48:35.148Z,9.12
2022-10-11T07:51:12.703Z,9.20
2022-10-11T07:53:44.780Z,9.27
2022-10-11T07:56:13.954Z,9.36
2022-10-11T07:58:41.752Z,9.43
2022-10-11T08:01:10.546Z,9.53
2022-10-11T08:03:38.239Z,9.64
2022-10-11T08:06:08.943Z,9.70
2022-10-11T08:08:36.781Z,9.79
2022-10-11T08:11:03.880Z,9.88
2022-10-11T08:13:30.794Z,9.89
2022-10-11T08:15:57.569Z,10.00
2022-10-11T08:18:24.713Z,10.13
2022-10-11T08:20:51.503Z,10.23
2022-10-11T08:23:19.027Z,10.30
2022-10-11T08:25:47.581Z,10.37
2022-10-11T08:28:17.408Z,10.46
2022-10-11T08:30:49.208Z,10.53
2022-10-11T08:33:17.230Z,10.60
2022-10-11T08:35:44.381Z,10.67
2022-10-11T08:38:11.411Z,10.72
2022-10-11T08:40:38.764Z,10.81
2022-10-11T08:43:12.074Z,10.88
2022-10-11T08:45:50.216Z,10.92
2022-10-11T08:48:34.293Z,10.98
2022-10-11T08:51:01.857Z,11.07
2022-10-11T08:53:51.711Z,11.10
2022-10-11T08:56:20.579Z,11.14
2022-10-11T08:58:57.700Z,11.20
2022-10-11T09:01:27.262Z,11.22
2022-10-11T09:03:54.345Z,11.25
2022-10-11T09:06:23.707Z,11.28
2022-10-11T09:08:53.003Z,11.33
2022-10-11T09:11:25.373Z,11.37
2022-10-11T09:14:13.944Z,11.42
2022-10-11T09:17:01.807Z,11.47
2022-10-11T09:19:58.603Z,11.56
2022-10-11T09:22:46.715Z,11.62
2022-10-11T09:25:22.285Z,11.66
2022-10-11T09:28:05.729Z,11.68
2022-10-11T09:30:33.567Z,11.71
2022-10-11T09:33:28.761Z,11.74
2022-10-11T09:35:57.117Z,11.79
2022-10-11T09:38:43.475Z,11.82
2022-10-11T09:41:15.798Z,11.89
2022-10-11T09:43:48.529Z,11.97
2022-10-11T09:46:23.373Z,12.02
2022-10-11T09:48:50.975Z,12.14
2022-10-11T09:51:21.895Z,12.22
2022-10-11T09:53:51.115Z,12.35
2022-10-11T09:56:17.881Z,12.46
2022-10-11T09:58:44.709Z,12.57
2022-10-11T10:01:14.128Z,12.70
2022-10-11T10:03:43.407Z,12.77
2022-10-11T10:06:27.191Z,12.88
2022-10-11T10:08:55.136Z,13.05
2022-10-11T10:11:21.786Z,13.23
2022-10-11T10:13:51.684Z,13.45
2022-10-11T10:16:30.366Z,13.51
2022-10-11T10:19:21.635Z,13.49
2022-10-11T10:21:50.818Z,13.59
2022-10-11T10:24:31.757Z,13.73
2022-10-11T10:27:29.452Z,13.86
2022-10-11T10:30:19.489Z,13.97
2022-10-11T10:32:59.834Z,14.05
2022-10-11T10:35:26.396Z,14.23
2022-10-11T10:38:08.106Z,14.62
2022-10-11T10:40:56.676Z,15.66
2022-10-11T10:43:26.639Z,17.25
2022-10-11T10:45:55.863Z,19.07
2022-10-11T10:49:23.614Z,21.29
2022-10-11T10:52:05.345Z,23.31
2022-10-11T10:55:08.074Z,25.37
2022-10-11T10:58:04.498Z,25.46
2022-10-11T11:00:41.570Z,26.00
2022-10-11T11:03:34.022Z,26.59
2022-10-11T11:06:07.790Z,28.41
2022-10-11T11:08:37.365Z,29.63
2022-10-11T11:11:28.507Z,31.21
2022-10-11T11:13:54.981Z,31.79
2022-10-11T11:16:54.567Z,32.03
2022-10-11T11:19:30.652Z,31.83
2022-10-11T11:22:03.285Z,30.54
2022-10-11T11:24:48.443Z,31.55
2022-10-11T11:27:36.529Z,31.05
2022-10-11T11:30:09.682Z,32.77
2022-10-11T11:33:02.366Z,34.31
2022-10-11T11:35:42.874Z,35.79
2022-10-11T11:38:29.884Z,35.64
2022-10-11T11:41:04.988Z,35.50
2022-10-11T11:43:36.891Z,36.17
2022-10-11T11:46:12.566Z,36.23
2022-10-11T11:48:39.511Z,35.73
2022-10-11T11:51:12.973Z,35.90
2022-10-11T11:53:50.924Z,36.88
2022-10-11T11:56:33.305Z,36.57
2022-10-11T11:59:09.980Z,37.41
2022-10-11T12:01:52.702Z,35.04
2022-10-11T12:04:28.622Z,36.15
2022-10-11T12:07:22.184Z,36.53
2022-10-11T12:09:55.275Z,37.01
2022-10-11T12:12:35.435Z,37.61
2022-10-11T12:15:25.165Z,38.48
2022-10-11T12:17:57.622Z,39.33
2022-10-11T12:20:41.291Z,39.99
2022-10-11T12:23:29.475Z,38.61
2022-10-11T12:26:19.221Z,37.86
2022-10-11T12:29:02.364Z,37.90
2022-10-11T12:31:32.450Z,37.08
2022-10-11T12:34:01.987Z,38.26
2022-10-11T12:36:29.593Z,38.52
2022-10-11T12:39:20.876Z,37.84
2022-10-11T12:41:47.369Z,37.41
2022-10-11T12:44:22.912Z,37.54
2022-10-11T12:46:55.430Z,35.95
2022-10-11T12:49:29.575Z,36.14
2022-10-11T12:52:17.900Z,37.79
2022-10-11T12:54:54.336Z,36.05
2022-10-11T12:57:46.511Z,37.09
2022-10-11T13:00:29.917Z,38.29
2022-10-11T13:03:05.871Z,37.88
2022-10-11T13:05:45.071Z,34.57
2022-10-11T13:08:18.719Z,33.82
2022-10-11T13:10:47.316Z,33.44
2022-10-11T13:13:42.718Z,33.73
2022-10-11T13:16:13.618Z,33.61
2022-10-11T13:18:45.055Z,35.42
2022-10-11T13:21:36.122Z,37.16
2022-10-11T13:24:24.150Z,36.95
2022-10-11T13:26:54.526Z,34.12
2022-10-11T13:29:29.985Z,33.06
2022-10-11T13:31:56.648Z,32.25
2022-10-11T13:34:24.260Z,32.89
2022-10-11T13:36:58.739Z,32.04
2022-10-11T13:39:31.448Z,32.48
2022-10-11T13:41:59.668Z,33.24
2022-10-11T13:44:26.889Z,33.88
2022-10-11T13:46:53.791Z,34.64
2022-10-11T13:49:37.043Z,33.94
2022-10-11T13:52:17.797Z,31.81
2022-10-11T13:54:55.931Z,33.42
2022-10-11T13:57:37.768Z,33.34
2022-10-11T14:00:17.199Z,34.45
2022-10-11T14:02:56.063Z,35.95
2022-10-11T14:05:32.531Z,34.61
2022-10-11T14:08:02.415Z,35.13
2022-10-11T14:10:30.235Z,36.29
2022-10-11T14:13:23.196Z,37.06
2022-10-11T14:16:09.918Z,37.46
2022-10-11T14:18:43.786Z,36.26
2022-10-11T14:21:19.420Z,35.27
2022-10-11T14:23:54.158Z,33.88
2022-10-11T14:26:21.290Z,33.04
2022-10-11T14:28:56.720Z,31.50
2022-10-11T14:31:23.827Z,30.07
2022-10-11T14:33:50.441Z,28.92
2022-10-11T14:36:17.021Z,28.44
2022-10-11T14:38:43.551Z,27.35
2022-10-11T14:41:10.116Z,26.05
2022-10-11T14:43:36.689Z,25.18
2022-10-11T14:46:03.445Z,19.79
2022-10-11T14:48:54.437Z,20.11
2022-10-11T14:51:21.988Z,19.61
2022-10-11T14:53:48.896Z,19.19
2022-10-11T14:56:20.478Z,18.86
2022-10-11T14:58:48.146Z,18.48
2022-10-11T15:01:16.982Z,18.18
2022-10-11T15:03:43.782Z,17.91
2022-10-11T15:06:20.469Z,17.57
2022-10-11T15:08:47.723Z,17.30
2022-10-11T15:11:17.296Z,17.02
2022-10-11T15:13:44.444Z,16.72
2022-10-11T15:16:13.826Z,16.44
2022-10-11T15:18:40.518Z,16.14
2022-10-11T15:21:08.019Z,15.88
2022-10-11T15:23:34.537Z,15.69
2022-10-11T15:26:01.169Z,15.48
2022-10-11T15:28:31.363Z,15.26
2022-10-11T15:30:58.973Z,15.05
2022-10-11T15:33:26.173Z,14.81
2022-10-11T15:35:53.835Z,14.63
2022-10-11T15:38:25.675Z,14.46
2022-10-11T15:40:53.289Z,14.14
2022-10-11T15:43:24.407Z,13.95
2022-10-11T15:45:51.790Z,13.79
2022-10-11T15:48:19.713Z,13.61
2022-10-11T15:50:46.497Z,13.45
2022-10-11T15:53:18.998Z,13.29
2022-10-11T15:55:49.599Z,13.07
2022-10-11T15:58:25.295Z,12.91
2022-10-11T16:00:55.375Z,12.72
2022-10-11T16:03:25.314Z,12.66
2022-10-11T16:05:52.633Z,12.58
2022-10-11T16:08:19.627Z,12.53
2022-10-11T16:10:46.427Z,12.42
2022-10-11T16:13:13.036Z,12.30
2022-10-11T16:15:42.124Z,12.19
2022-10-11T16:18:12.929Z,12.06
2022-10-11T16:20:40.957Z,11.95
2022-10-11T16:23:07.797Z,11.82
2022-10-11T16:25:34.666Z,11.74
2022-10-11T16:28:02.406Z,11.66
2022-10-11T16:30:29.319Z,11.52
2022-10-11T16:32:56.017Z,11.45
2022-10-11T16:35:23.164Z,11.34
2022-10-11T16:37:50.243Z,11.27
2022-10-11T16:40:17.668Z,11.22
2022-10-11T16:42:45.921Z,11.10
2022-10-11T16:45:14.434Z,10.89
2022-10-11T16:47:42.289Z,10.83
2022-10-11T16:50:10.016Z,10.82
2022-10-11T16:52:36.822Z,10.70
2022-10-11T16:55:03.626Z,10.62
2022-10-11T16:57:30.179Z,10.54
2022-10-11T16:59:56.892Z,10.46
2022-10-11T17:02:29.927Z,10.45
2022-10-11T17:04:58.859Z,10.43
2022-10-11T17:07:25.581Z,10.37
2022-10-11T17:09:55.079Z,10.31
2022-10-11T17:12:23.699Z,10.26
2022-10-11T17:14:50.861Z,10.19
2022-10-11T17:17:19.024Z,10.14
2022-10-11T17:19:47.654Z,10.03
2022-10-11T17:22:18.356Z,9.97
2022-10-11T17:24:45.424Z,9.90
2022-10-11T17:27:12.080Z,9.81
2022-10-11T17:29:38.933Z,9.75
2022-10-11T17:32:05.656Z,9.70
2022-10-11T17:34:32.321Z,9.59
2022-10-11T17:36:58.936Z,9.49
2022-10-11T17:39:25.850Z,9.44
2022-10-11T17:41:52.965Z,9.40
2022-10-11T17:44:20.009Z,9.31
2022-10-11T17:46:46.934Z,9.29
2022-10-11T17:49:13.993Z,9.31
2022-10-11T17:51:41.262Z,9.24
2022-10-11T17:54:12.401Z,9.17
2022-10-11T17:56:42.926Z,9.21
2022-10-11T17:59:15.912Z,9.12
2022-10-11T18:01:42.865Z,9.13
2022-10-11T18:04:16.370Z,9.16
2022-10-11T18:06:45.102Z,9.06
2022-10-11T18:09:13.309Z,9.05
2022-10-11T18:11:39.866Z,8.95
2022-10-11T18:14:06.527Z,8.82
2022-10-11T18:16:34.917Z,8.83
2022-10-11T18:19:03.527Z,8.76
2022-10-11T18:21:34.394Z,8.77
2022-10-11T18:24:03.075Z,8.78
2022-10-11T18:26:30.894Z,8.77
2022-10-11T18:28:58.526Z,8.77
2022-10-11T18:31:29.262Z,8.78
2022-10-11T18:33:56.023Z,8.74
2022-10-11T18:36:25.192Z,8.67
2022-10-11T18:38:58.342Z,8.67
2022-10-11T18:41:33.557Z,8.69
2022-10-11T18:44:02.767Z,8.66
2022-10-11T18:46:29.951Z,8.64
2022-10-11T18:48:58.611Z,8.62
2022-10-11T18:51:30.619Z,8.58
2022-10-11T18:54:01.477Z,8.54
2022-10-11T18:56:29.653Z,8.53
2022-10-11T18:58:57.326Z,8.46
2022-10-11T19:01:25.320Z,8.40
2022-10-11T19:03:54.518Z,8.40
2022-10-11T19:06:24.243Z,8.38
2022-10-11T19:08:58.975Z,8.37
2022-10-11T19:11:25.721Z,8.40
2022-10-11T19:14:00.334Z,8.33
2022-10-11T19:16:29.550Z,8.39
2022-10-11T19:18:57.377Z,8.40
2022-10-11T19:21:24.849Z,8.45
2022-10-11T19:23:52.369Z,8.52
2022-10-11T19:26:28.881Z,8.62
2022-10-11T19:29:00.827Z,8.68
2022-10-11T19:31:28.378Z,8.71
2022-10-11T19:33:57.456Z,8.56
2022-10-11T19:36:24.444Z,8.61
2022-10-11T19:38:52.087Z,8.67
2022-10-11T19:41:20.174Z,8.64
2022-10-11T19:43:47.217Z,8.72
2022-10-11T19:46:27.291Z,8.71
2022-10-11T19:49:02.855Z,8.75
2022-10-11T19:51:34.839Z,8.82
2022-10-11T19:54:03.806Z,8.82
2022-10-11T19:56:31.925Z,8.88
2022-10-11T19:58:59.209Z,8.98
2022-10-11T20:01:28.935Z,9.02
2022-10-11T20:04:00.617Z,9.01
2022-10-11T20:06:28.490Z,9.10
2022-10-11T20:09:23.863Z,9.13
2022-10-11T20:11:42.952Z,9.13
2022-10-11T20:14:09.489Z,9.28
2022-10-11T20:16:36.275Z,9.44
2022-10-11T20:19:03.973Z,9.61
2022-10-11T20:21:31.095Z,9.73
2022-10-11T20:24:01.131Z,9.65
2022-10-11T20:26:29.130Z,9.82
2022-10-11T20:28:57.190Z,9.83
2022-10-11T20:31:29.677Z,9.88
2022-10-11T20:33:58.519Z,10.01
2022-10-11T20:36:29.481Z,10.02
2022-10-11T20:38:57.644Z,10.05
2022-10-11T20:41:27.151Z,10.06
2022-10-11T20:43:55.573Z,10.14
2022-10-11T20:46:24.372Z,10.17
2022-10-11T20:49:01.168Z,10.19
2022-10-11T20:51:29.138Z,10.22
2022-10-11T20:53:56.436Z,10.23
2022-10-11T20:56:23.640Z,10.22
2022-10-11T20:58:52.534Z,10.18
2022-10-11T21:01:21.494Z,10.16
2022-10-11T21:03:48.289Z,10.19
2022-10-11T21:06:14.836Z,10.22
2022-10-11T21:08:41.610Z,10.26
2022-10-11T21:11:09.840Z,10.26
2022-10-11T21:13:36.799Z,10.18
2022-10-11T21:16:14.832Z,10.19
2022-10-11T21:18:41.939Z,10.26
2022-10-11T21:21:11.707Z,10.26
2022-10-11T21:23:39.154Z,10.39
2022-10-11T21:26:08.581Z,10.39
2022-10-11T21:28:35.185Z,10.45
2022-10-11T21:31:10.635Z,10.46
2022-10-11T21:33:38.483Z,10.46
2022-10-11T21:36:07.048Z,10.46
2022-10-11T21:38:34.573Z,10.39
2022-10-11T21:41:10.888Z,10.27
2022-10-11T21:43:38.446Z,10.24
2022-10-11T21:46:15.917Z,10.18
2022-10-11T21:48:42.753Z,10.27
2022-10-11T21:51:23.081Z,10.27
2022-10-11T21:53:50.312Z,10.27
2022-10-11T21:56:16.873Z,10.27
2022-10-11T21:58:43.513Z,10.37
2022-10-11T22:01:10.936Z,10.40
2022-10-11T22:03:37.536Z,10.44
2022-10-11T22:06:05.016Z,10.45
2022-10-11T22:08:31.936Z,10.51
2022-10-11T22:11:00.166Z,10.66
2022-10-11T22:13:28.543Z,10.78
2022-10-11T22:15:58.160Z,10.83
2022-10-11T22:18:25.024Z,10.87
2022-10-11T22:20:51.834Z,10.87
2022-10-11T22:23:19.299Z,10.91
2022-10-11T22:25:46.220Z,10.85
2022-10-11T22:28:12.846Z,10.81
2022-10-11T22:30:39.499Z,10.79
2022-10-11T22:33:06.027Z,10.78
2022-10-11T22:35:37.292Z,10.74
2022-10-11T22:38:06.108Z,10.69
2022-10-11T22:40:32.859Z,10.66
2022-10-11T22:42:59.380Z,10.62
2022-10-11T22:45:25.953Z,10.57
2022-10-11T22:47:52.508Z,10.54
2022-10-11T22:50:19.257Z,10.55
2022-10-11T22:52:45.859Z,10.48
2022-10-11T22:55:18.971Z,10.42
2022-10-11T22:57:46.387Z,10.34
2022-10-11T23:00:13.206Z,10.25
2022-10-11T23:02:39.720Z,10.15
2022-10-11T23:05:06.504Z,10.14
2022-10-11T23:07:33.039Z,10.12
2022-10-11T23:09:59.574Z,10.05
2022-10-11T23:12:26.141Z,10.02
2022-10-11T23:14:52.697Z,9.86
2022-10-11T23:17:19.222Z,9.82
2022-10-11T23:19:45.773Z,9.78
2022-10-11T23:22:12.439Z,9.74
2022-10-11T23:24:39.093Z,9.70
2022-10-11T23:27:06.003Z,9.69
2022-10-11T23:29:32.836Z,9.64
2022-10-11T23:31:59.433Z,9.54
2022-10-11T23:34:26.060Z,9.53
2022-10-11T23:36:52.577Z,9.43
2022-10-11T23:39:19.131Z,9.39
2022-10-11T23:41:45.677Z,9.28
2022-10-11T23:44:12.273Z,9.23
2022-10-11T23:46:38.797Z,9.15
2022-10-11T23:49:05.433Z,9.13
2022-10-11T23:51:32.199Z,9.07
2022-10-11T23:53:58.794Z,9.03
2022-10-11T23:56:25.469Z,8.96
2022-10-11T23:58:52.092Z,8.88
